Overview Statistics Trail Chart Weather Telemetry Raw packets
 

This is the latest recevied weather packets stored in our database for station/object LA4GY-1. If no packets are shown the sender has not sent any weather packets the latest 10 day(s).

<< 41 42 43 44 45 46 47 >>
Time Temp. Humidity Pressure Rain* Wind** Luminosity Snow
1788017794 15.56° C 85% 1000.3 hPa 0 mm - - -
1788017194 15.56° C 87% 1000.4 hPa 0 mm - - -
1788016594 15.56° C 86% 1000.5 hPa 0 mm - - -
1788015994 15.56° C 86% 1000.6 hPa 0 mm - - -
1788015394 16.11° C 84% 1000.7 hPa 0 mm - - -
1788014794 16.11° C 84% 1000.8 hPa 0 mm - - -
1788014194 16.11° C 83% 1000.9 hPa 0 mm - - -
1788013596 16.11° C 83% 1001 hPa 0 mm - - -
1788012994 16.11° C 82% 1001.2 hPa 0 mm - - -
1788012394 15.56° C 83% 1001.2 hPa 0 mm - - -
1788011794 15.56° C 83% 1001.3 hPa 0 mm - - -
1788011194 15.56° C 85% 1001.4 hPa 0 mm - - -
1788010594 16.11° C 83% 1001.6 hPa 0 mm - - -
1788009993 16.67° C 82% 1001.6 hPa 0 mm - - -
1788009393 17.22° C 75% 1001.7 hPa 0 mm - - -
1788008793 16.67° C 74% 1001.9 hPa 0 mm - - -
1788008193 16.67° C 75% 1002 hPa 0 mm - - -
1788007593 16.67° C 76% 1002.1 hPa 0 mm - - -
1788006993 16.67° C 76% 1002.3 hPa 0 mm - - -
1788006393 16.67° C 75% 1002.4 hPa 0 mm - - -
1788005793 16.11° C 77% 1002.7 hPa 0 mm - - -
1788005163 15.56° C 78% 1003 hPa 0 mm - - -
1788004563 15.56° C 80% 1003.3 hPa 0 mm - - -
1788003963 15° C 81% 1003.6 hPa 0 mm - - -
1788003363 15° C 81% 1004 hPa 0 mm - - -

* Rain latest hour (hover to see other rain measurements)
** Current wind speed in m/s (hover to see current wind gust speed)